Impacts TAF Board
For situational awareness. Not to be used for flight planning purposes.
IDs:

KEGE - Eagle Cnty Rgnl, CO, US

Issued at 1743 UTC 31 Jul 2021
Updated at 1940 UTC 31 Jul 2021
Potential Impact None Slight Moderate High
Time<<01/08Z 01/09Z 01/10Z 01/11Z 01/12Z 01/13Z 01/14Z 01/15Z 01/16Z 01/17Z 01/18Z 01/19Z 01/20Z>>
Type PRVL PRVL PRVL PRVL PRVL PRVL PRVL PRVL PRVL PRVL
VIS >6 >6 >6 >6 >6 >6 >6 >6 >6 >6
CIG 80 80 80 80 80 80 80 80 80 80
Cover BKN BKN BKN BKN BKN BKN BKN BKN BKN BKN
FltCat VFR VFR VFR VFR VFR VFR VFR VFR VFR VFR
WX -- -- -- -- -- -- -- -- -- --
WDir VRB VRB VRB VRB VRB VRB VRB VRB VRB VRB
WSpd 3 3 3 3 3 3 3 3 3 3
WGst -- -- -- -- -- -- -- -- -- --
Raw TAF
KEGE 311743Z 3118/0118 27005KT P6SM VCTS FEW070CB BKN110
  TEMPO 3120/3123 VRB15G35KT 4SM -TSRA BKN040CB
  FM312300 06010G18KT 6SM -TSRA SCT035CB BKN060
  FM010300 02005KT P6SM VCSH SCT040 BKN070
  FM010600 VRB03KT P6SM SCT050 BKN080


METAR Board
Radar Display
Forecast Discussion
For situational awareness. Not to be used for flight planning purposes.